sensor_id;sensor_type;location;lat;lon;timestamp;pressure;altitude;pressure_sealevel;temperature;humidity
52923;BME280;38796;42.702;23.306;2022-08-23T00:00:26;94703.00;;;18.20;100.00
52923;BME280;38796;42.702;23.306;2022-08-23T00:02:26;94694.28;;;18.33;100.00
52923;BME280;38796;42.702;23.306;2022-08-23T00:04:28;94696.72;;;18.35;100.00
52923;BME280;38796;42.702;23.306;2022-08-23T00:06:31;94699.25;;;18.43;100.00
52923;BME280;38796;42.702;23.306;2022-08-23T00:08:29;94700.94;;;18.51;100.00
52923;BME280;38796;42.702;23.306;2022-08-23T00:10:28;94710.78;;;18.50;100.00
52923;BME280;38796;42.702;23.306;2022-08-23T00:12:26;94709.97;;;18.56;100.00
52923;BME280;38796;42.702;23.306;2022-08-23T00:14:31;94711.66;;;18.57;100.00
52923;BME280;38796;42.702;23.306;2022-08-23T00:16:33;94715.69;;;18.53;100.00
52923;BME280;38796;42.702;23.306;2022-08-23T00:18:32;94714.44;;;18.49;100.00
52923;BME280;38796;42.702;23.306;2022-08-23T00:20:32;94704.16;;;18.39;100.00
52923;BME280;38796;42.702;23.306;2022-08-23T00:22:31;94705.47;;;18.50;100.00
52923;BME280;38796;42.702;23.306;2022-08-23T00:24:29;94701.97;;;18.56;100.00
52923;BME280;38796;42.702;23.306;2022-08-23T00:26:55;94700.97;;;18.57;100.00
52923;BME280;38796;42.702;23.306;2022-08-23T00:28:55;94706.44;;;18.49;100.00
52923;BME280;38796;42.702;23.306;2022-08-23T00:30:54;94704.59;;;18.49;100.00
52923;BME280;38796;42.702;23.306;2022-08-23T00:32:54;94697.16;;;18.38;100.00
52923;BME280;38796;42.702;23.306;2022-08-23T00:34:54;94696.31;;;18.31;100.00
52923;BME280;38796;42.702;23.306;2022-08-23T00:36:53;94705.75;;;18.34;100.00
52923;BME280;38796;42.702;23.306;2022-08-23T00:38:52;94712.66;;;18.21;100.00
52923;BME280;38796;42.702;23.306;2022-08-23T00:40:52;94712.66;;;18.21;100.00
52923;BME280;38796;42.702;23.306;2022-08-23T00:42:53;94713.91;;;18.25;100.00
52923;BME280;38796;42.702;23.306;2022-08-23T00:45:15;94713.44;;;18.15;100.00
52923;BME280;38796;42.702;23.306;2022-08-23T00:47:32;94708.75;;;18.24;100.00
52923;BME280;38796;42.702;23.306;2022-08-23T00:49:44;94697.13;;;18.32;100.00
52923;BME280;38796;42.702;23.306;2022-08-23T00:51:47;94704.13;;;18.33;100.00
52923;BME280;38796;42.702;23.306;2022-08-23T00:53:55;94700.19;;;18.29;100.00
52923;BME280;38796;42.702;23.306;2022-08-23T00:55:58;94710.44;;;18.32;100.00
52923;BME280;38796;42.702;23.306;2022-08-23T00:58:00;94712.34;;;18.38;100.00
52923;BME280;38796;42.702;23.306;2022-08-23T00:59:59;94707.41;;;18.35;100.00
52923;BME280;38796;42.702;23.306;2022-08-23T01:01:58;94709.94;;;18.43;100.00
52923;BME280;38796;42.702;23.306;2022-08-23T01:03:58;94709.66;;;18.38;100.00
52923;BME280;38796;42.702;23.306;2022-08-23T01:06:06;94710.69;;;18.37;100.00
52923;BME280;38796;42.702;23.306;2022-08-23T01:08:06;94707.41;;;18.35;100.00
52923;BME280;38796;42.702;23.306;2022-08-23T01:10:10;94707.16;;;18.30;100.00
52923;BME280;38796;42.702;23.306;2022-08-23T01:12:20;94708.19;;;18.29;100.00
52923;BME280;38796;42.702;23.306;2022-08-23T01:14:33;94711.63;;;18.22;100.00
52923;BME280;38796;42.702;23.306;2022-08-23T01:16:37;94713.47;;;18.22;100.00
52923;BME280;38796;42.702;23.306;2022-08-23T01:18:37;94715.94;;;18.23;100.00
52923;BME280;38796;42.702;23.306;2022-08-23T01:20:42;94722.91;;;18.24;100.00
52923;BME280;38796;42.702;23.306;2022-08-23T01:22:51;94718.75;;;18.15;100.00
52923;BME280;38796;42.702;23.306;2022-08-23T01:24:54;94720.34;;;18.10;100.00
52923;BME280;38796;42.702;23.306;2022-08-23T01:27:09;94715.22;;;18.08;100.00
52923;BME280;38796;42.702;23.306;2022-08-23T01:29:08;94710.06;;;18.07;100.00
52923;BME280;38796;42.702;23.306;2022-08-23T01:31:08;94721.59;;;18.14;100.00
52923;BME280;38796;42.702;23.306;2022-08-23T01:33:06;94710.22;;;18.27;100.00
52923;BME280;38796;42.702;23.306;2022-08-23T01:35:07;94705.97;;;18.32;100.00
52923;BME280;38796;42.702;23.306;2022-08-23T01:37:07;94713.84;;;18.47;100.00
52923;BME280;38796;42.702;23.306;2022-08-23T01:39:06;94712.66;;;18.56;99.09
52923;BME280;38796;42.702;23.306;2022-08-23T01:41:06;94719.22;;;18.54;97.42
52923;BME280;38796;42.702;23.306;2022-08-23T01:43:07;94713.66;;;18.55;98.10
52923;BME280;38796;42.702;23.306;2022-08-23T01:45:08;94712.91;;;18.61;97.47
52923;BME280;38796;42.702;23.306;2022-08-23T01:47:07;94715.91;;;18.52;97.95
52923;BME280;38796;42.702;23.306;2022-08-23T01:49:06;94714.88;;;18.53;97.84
52923;BME280;38796;42.702;23.306;2022-08-23T01:51:07;94715.69;;;18.46;98.22
52923;BME280;38796;42.702;23.306;2022-08-23T01:53:07;94715.25;;;18.43;98.75
52923;BME280;38796;42.702;23.306;2022-08-23T01:55:08;94713.47;;;18.57;98.06
52923;BME280;38796;42.702;23.306;2022-08-23T01:57:08;94714.06;;;18.52;98.01
52923;BME280;38796;42.702;23.306;2022-08-23T01:59:08;94708.94;;;18.51;98.31
52923;BME280;38796;42.702;23.306;2022-08-23T02:01:12;94704.97;;;18.40;98.81
52923;BME280;38796;42.702;23.306;2022-08-23T02:03:10;94705.97;;;18.32;99.25
52923;BME280;38796;42.702;23.306;2022-08-23T02:05:09;94701.50;;;18.46;98.97
52923;BME280;38796;42.702;23.306;2022-08-23T02:07:07;94699.06;;;18.44;98.53
52923;BME280;38796;42.702;23.306;2022-08-23T02:09:06;94711.34;;;18.45;98.82
52923;BME280;38796;42.702;23.306;2022-08-23T02:11:16;94701.69;;;18.38;99.12
52923;BME280;38796;42.702;23.306;2022-08-23T02:13:20;94707.41;;;18.35;99.31
52923;BME280;38796;42.702;23.306;2022-08-23T02:15:18;94715.66;;;18.40;99.20
52923;BME280;38796;42.702;23.306;2022-08-23T02:17:17;94708.03;;;18.37;99.40
52923;BME280;38796;42.702;23.306;2022-08-23T02:19:15;94710.22;;;18.27;99.89
52923;BME280;38796;42.702;23.306;2022-08-23T02:21:14;94699.56;;;18.27;100.00
52923;BME280;38796;42.702;23.306;2022-08-23T02:23:13;94706.78;;;18.33;99.86
52923;BME280;38796;42.702;23.306;2022-08-23T02:25:12;94701.50;;;18.39;99.34
52923;BME280;38796;42.702;23.306;2022-08-23T02:27:11;94700.44;;;18.34;100.00
52923;BME280;38796;42.702;23.306;2022-08-23T02:29:14;94693.94;;;18.43;99.42
52923;BME280;38796;42.702;23.306;2022-08-23T02:31:13;94693.47;;;18.33;100.00
52923;BME280;38796;42.702;23.306;2022-08-23T02:33:13;94696.34;;;18.38;99.91
52923;BME280;38796;42.702;23.306;2022-08-23T02:35:13;94700.91;;;18.44;99.60
52923;BME280;38796;42.702;23.306;2022-08-23T02:37:12;94694.31;;;18.40;99.63
52923;BME280;38796;42.702;23.306;2022-08-23T02:39:13;94696.59;;;18.43;99.15
52923;BME280;38796;42.702;23.306;2022-08-23T02:41:11;94695.19;;;18.47;99.07
52923;BME280;38796;42.702;23.306;2022-08-23T02:43:10;94703.41;;;18.52;98.20
52923;BME280;38796;42.702;23.306;2022-08-23T02:45:10;94702.41;;;18.60;98.26
52923;BME280;38796;42.702;23.306;2022-08-23T02:47:14;94713.75;;;18.68;97.17
52923;BME280;38796;42.702;23.306;2022-08-23T02:49:21;94708.03;;;18.71;96.23
52923;BME280;38796;42.702;23.306;2022-08-23T02:51:19;94712.97;;;18.75;96.19
52923;BME280;38796;42.702;23.306;2022-08-23T02:53:18;94712.56;;;18.78;95.82
52923;BME280;38796;42.702;23.306;2022-08-23T02:55:16;94710.13;;;18.76;95.65
52923;BME280;38796;42.702;23.306;2022-08-23T02:57:15;94703.34;;;18.73;95.39
52923;BME280;38796;42.702;23.306;2022-08-23T02:59:13;94698.34;;;18.70;95.26
52923;BME280;38796;42.702;23.306;2022-08-23T03:01:17;94693.03;;;18.70;94.70
52923;BME280;38796;42.702;23.306;2022-08-23T03:03:17;94706.44;;;18.77;94.35
52923;BME280;38796;42.702;23.306;2022-08-23T03:05:18;94706.63;;;18.82;93.74
52923;BME280;38796;42.702;23.306;2022-08-23T03:07:17;94710.94;;;18.77;93.71
52923;BME280;38796;42.702;23.306;2022-08-23T03:09:15;94698.63;;;18.82;93.42
52923;BME280;38796;42.702;23.306;2022-08-23T03:11:16;94699.91;;;18.86;92.51
52923;BME280;38796;42.702;23.306;2022-08-23T03:13:16;94703.16;;;18.82;92.79
52923;BME280;38796;42.702;23.306;2022-08-23T03:15:17;94697.41;;;18.78;93.37
52923;BME280;38796;42.702;23.306;2022-08-23T03:17:18;94698.22;;;18.72;93.11
52923;BME280;38796;42.702;23.306;2022-08-23T03:19:17;94707.88;;;18.80;92.76
52923;BME280;38796;42.702;23.306;2022-08-23T03:21:16;94702.34;;;18.81;92.49
52923;BME280;38796;42.702;23.306;2022-08-23T03:23:15;94703.53;;;18.79;92.20
52923;BME280;38796;42.702;23.306;2022-08-23T03:25:14;94690.22;;;18.79;92.10
52923;BME280;38796;42.702;23.306;2022-08-23T03:27:28;94699.88;;;18.80;91.67
52923;BME280;38796;42.702;23.306;2022-08-23T03:29:34;94693.50;;;18.81;91.74
52923;BME280;38796;42.702;23.306;2022-08-23T03:31:32;94705.22;;;18.80;91.77
52923;BME280;38796;42.702;23.306;2022-08-23T03:33:38;94704.97;;;18.75;92.46
52923;BME280;38796;42.702;23.306;2022-08-23T03:35:37;94700.28;;;18.77;92.64
52923;BME280;38796;42.702;23.306;2022-08-23T03:37:37;94705.34;;;18.71;93.20
52923;BME280;38796;42.702;23.306;2022-08-23T03:39:37;94701.41;;;18.67;93.99
52923;BME280;38796;42.702;23.306;2022-08-23T03:41:37;94706.72;;;18.61;94.36
52923;BME280;38796;42.702;23.306;2022-08-23T03:43:37;94711.19;;;18.47;94.92
52923;BME280;38796;42.702;23.306;2022-08-23T03:45:37;94716.03;;;18.37;95.40
52923;BME280;38796;42.702;23.306;2022-08-23T03:47:36;94721.91;;;18.25;95.51
52923;BME280;38796;42.702;23.306;2022-08-23T03:49:36;94723.34;;;18.28;95.91
52923;BME280;38796;42.702;23.306;2022-08-23T03:51:46;94726.22;;;18.27;95.79
52923;BME280;38796;42.702;23.306;2022-08-23T03:53:45;94732.56;;;18.25;95.58
52923;BME280;38796;42.702;23.306;2022-08-23T03:55:45;94735.34;;;18.17;95.92
52923;BME280;38796;42.702;23.306;2022-08-23T03:57:46;94740.06;;;18.15;94.83
52923;BME280;38796;42.702;23.306;2022-08-23T03:59:47;94746.91;;;17.96;95.86
52923;BME280;38796;42.702;23.306;2022-08-23T04:01:45;94755.94;;;18.02;95.47
52923;BME280;38796;42.702;23.306;2022-08-23T04:03:44;94755.94;;;18.02;95.43
52923;BME280;38796;42.702;23.306;2022-08-23T04:05:45;94757.78;;;18.01;95.38
52923;BME280;38796;42.702;23.306;2022-08-23T04:07:47;94757.56;;;17.96;95.77
52923;BME280;38796;42.702;23.306;2022-08-23T04:09:48;94770.06;;;18.02;94.11
52923;BME280;38796;42.702;23.306;2022-08-23T04:11:52;94771.31;;;18.00;94.50
52923;BME280;38796;42.702;23.306;2022-08-23T04:13:50;94771.16;;;18.08;93.62
52923;BME280;38796;42.702;23.306;2022-08-23T04:15:49;94772.88;;;18.16;92.99
52923;BME280;38796;42.702;23.306;2022-08-23T04:17:48;94767.31;;;18.17;92.59
52923;BME280;38796;42.702;23.306;2022-08-23T04:19:47;94776.50;;;18.08;92.73
52923;BME280;38796;42.702;23.306;2022-08-23T04:21:50;94776.16;;;18.18;92.27
52923;BME280;38796;42.702;23.306;2022-08-23T04:23:49;94775.28;;;18.11;92.51
52923;BME280;38796;42.702;23.306;2022-08-23T04:25:49;94778.41;;;18.21;91.92
52923;BME280;38796;42.702;23.306;2022-08-23T04:27:48;94777.75;;;18.12;92.28
52923;BME280;38796;42.702;23.306;2022-08-23T04:29:46;94783.75;;;17.93;93.00
52923;BME280;38796;42.702;23.306;2022-08-23T04:31:46;94792.50;;;17.87;94.57
52923;BME280;38796;42.702;23.306;2022-08-23T04:33:46;94793.75;;;17.91;95.09
52923;BME280;38796;42.702;23.306;2022-08-23T04:35:49;94790.72;;;17.94;95.85
52923;BME280;38796;42.702;23.306;2022-08-23T04:37:51;94787.28;;;18.00;96.51
52923;BME280;38796;42.702;23.306;2022-08-23T04:39:49;94792.72;;;18.13;96.56
52923;BME280;38796;42.702;23.306;2022-08-23T04:42:10;94787.25;;;18.21;96.80
52923;BME280;38796;42.702;23.306;2022-08-23T04:44:17;94793.75;;;18.12;97.57
52923;BME280;38796;42.702;23.306;2022-08-23T04:46:18;94795.38;;;18.13;98.00
52923;BME280;38796;42.702;23.306;2022-08-23T04:48:16;94790.88;;;18.14;98.43
52923;BME280;38796;42.702;23.306;2022-08-23T04:50:18;94799.84;;;18.34;97.23
52923;BME280;38796;42.702;23.306;2022-08-23T04:52:38;94792.06;;;18.33;97.33
52923;BME280;38796;42.702;23.306;2022-08-23T04:54:38;94785.16;;;18.17;98.41
52923;BME280;38796;42.702;23.306;2022-08-23T04:57:00;94790.16;;;18.27;97.69
52923;BME280;38796;42.702;23.306;2022-08-23T04:59:02;94793.97;;;18.17;98.87
52923;BME280;38796;42.702;23.306;2022-08-23T05:01:04;94799.78;;;18.28;98.35
52923;BME280;38796;42.702;23.306;2022-08-23T05:03:03;94800.28;;;18.38;96.58
52923;BME280;38796;42.702;23.306;2022-08-23T05:05:03;94805.91;;;18.49;95.38
52923;BME280;38796;42.702;23.306;2022-08-23T05:07:10;94806.00;;;18.35;95.22
52923;BME280;38796;42.702;23.306;2022-08-23T05:09:08;94817.50;;;18.14;97.04
52923;BME280;38796;42.702;23.306;2022-08-23T05:11:09;94809.94;;;18.11;99.86
52923;BME280;38796;42.702;23.306;2022-08-23T05:13:09;94806.75;;;18.22;99.10
52923;BME280;38796;42.702;23.306;2022-08-23T05:15:09;94812.56;;;18.32;99.09
52923;BME280;38796;42.702;23.306;2022-08-23T05:17:12;94811.88;;;18.52;97.25
52923;BME280;38796;42.702;23.306;2022-08-23T05:19:10;94817.53;;;18.42;97.85
52923;BME280;38796;42.702;23.306;2022-08-23T05:21:14;94819.78;;;18.66;97.50
52923;BME280;38796;42.702;23.306;2022-08-23T05:23:14;94820.59;;;18.95;94.73
52923;BME280;38796;42.702;23.306;2022-08-23T05:25:19;94819.72;;;19.23;92.21
52923;BME280;38796;42.702;23.306;2022-08-23T05:27:22;94822.38;;;19.29;90.89
52923;BME280;38796;42.702;23.306;2022-08-23T05:29:21;94823.41;;;19.28;91.08
52923;BME280;38796;42.702;23.306;2022-08-23T05:31:22;94824.81;;;19.17;91.31
52923;BME280;38796;42.702;23.306;2022-08-23T05:33:23;94823.94;;;19.10;92.38
52923;BME280;38796;42.702;23.306;2022-08-23T05:35:22;94830.16;;;19.17;92.43
52923;BME280;38796;42.702;23.306;2022-08-23T05:37:20;94821.72;;;19.14;92.29
52923;BME280;38796;42.702;23.306;2022-08-23T05:39:19;94827.59;;;19.37;91.28
52923;BME280;38796;42.702;23.306;2022-08-23T05:41:33;94826.41;;;19.60;88.94
52923;BME280;38796;42.702;23.306;2022-08-23T05:43:38;94830.00;;;19.74;87.47
52923;BME280;38796;42.702;23.306;2022-08-23T05:45:36;94825.69;;;19.86;86.67
52923;BME280;38796;42.702;23.306;2022-08-23T05:47:35;94832.28;;;19.90;86.63
52923;BME280;38796;42.702;23.306;2022-08-23T05:49:49;94819.38;;;20.13;85.38
52923;BME280;38796;42.702;23.306;2022-08-23T05:51:47;94825.13;;;20.04;85.11
52923;BME280;38796;42.702;23.306;2022-08-23T05:53:51;94825.50;;;19.94;86.66
52923;BME280;38796;42.702;23.306;2022-08-23T05:55:49;94820.34;;;19.86;84.88
52923;BME280;38796;42.702;23.306;2022-08-23T05:57:49;94822.25;;;20.05;83.62
52923;BME280;38796;42.702;23.306;2022-08-23T05:59:50;94824.31;;;20.16;82.45
52923;BME280;38796;42.702;23.306;2022-08-23T06:01:48;94833.38;;;20.49;80.73
52923;BME280;38796;42.702;23.306;2022-08-23T06:03:48;94832.34;;;20.76;79.38
52923;BME280;38796;42.702;23.306;2022-08-23T06:05:46;94838.44;;;21.17;75.58
52923;BME280;38796;42.702;23.306;2022-08-23T06:07:45;94838.31;;;21.56;74.02
52923;BME280;38796;42.702;23.306;2022-08-23T06:09:45;94829.56;;;21.81;72.84
52923;BME280;38796;42.702;23.306;2022-08-23T06:11:45;94838.41;;;21.43;74.77
52923;BME280;38796;42.702;23.306;2022-08-23T06:13:47;94847.41;;;21.55;74.58
52923;BME280;38796;42.702;23.306;2022-08-23T06:15:47;94845.47;;;21.76;74.84
52923;BME280;38796;42.702;23.306;2022-08-23T06:17:46;94845.72;;;21.99;71.92
52923;BME280;38796;42.702;23.306;2022-08-23T06:19:44;94842.56;;;22.22;70.70
52923;BME280;38796;42.702;23.306;2022-08-23T06:21:53;94843.13;;;22.24;70.90
52923;BME280;38796;42.702;23.306;2022-08-23T06:24:00;94852.00;;;22.25;70.42
52923;BME280;38796;42.702;23.306;2022-08-23T06:25:59;94855.59;;;22.44;69.62
52923;BME280;38796;42.702;23.306;2022-08-23T06:28:03;94857.75;;;21.90;71.74
52923;BME280;38796;42.702;23.306;2022-08-23T06:30:03;94864.66;;;21.66;71.96
52923;BME280;38796;42.702;23.306;2022-08-23T06:32:16;94861.91;;;21.86;72.28
52923;BME280;38796;42.702;23.306;2022-08-23T06:34:36;94860.19;;;21.98;72.68
52923;BME280;38796;42.702;23.306;2022-08-23T06:36:58;94852.28;;;22.98;68.59
52923;BME280;38796;42.702;23.306;2022-08-23T06:39:25;94852.91;;;23.37;67.30
52923;BME280;38796;42.702;23.306;2022-08-23T06:41:44;94853.34;;;23.34;67.48
52923;BME280;38796;42.702;23.306;2022-08-23T06:43:55;94858.72;;;23.34;66.07
52923;BME280;38796;42.702;23.306;2022-08-23T06:46:15;94857.53;;;23.30;67.40
52923;BME280;38796;42.702;23.306;2022-08-23T06:48:16;94861.72;;;23.44;66.77
52923;BME280;38796;42.702;23.306;2022-08-23T06:50:14;94854.09;;;23.78;64.91
52923;BME280;38796;42.702;23.306;2022-08-23T06:52:33;94860.50;;;23.22;65.92
52923;BME280;38796;42.702;23.306;2022-08-23T06:54:48;94858.72;;;23.53;66.55
52923;BME280;38796;42.702;23.306;2022-08-23T06:56:49;94857.97;;;23.64;66.16
52923;BME280;38796;42.702;23.306;2022-08-23T06:58:53;94869.50;;;22.84;66.54
52923;BME280;38796;42.702;23.306;2022-08-23T07:01:18;94868.22;;;23.55;64.58
52923;BME280;38796;42.702;23.306;2022-08-23T07:03:46;94869.31;;;22.79;66.34
52923;BME280;38796;42.702;23.306;2022-08-23T07:06:24;94867.22;;;23.13;67.20
52923;BME280;38796;42.702;23.306;2022-08-23T07:08:23;94857.84;;;23.59;65.80
52923;BME280;38796;42.702;23.306;2022-08-23T07:10:21;94853.63;;;24.00;65.16
52923;BME280;38796;42.702;23.306;2022-08-23T07:12:20;94854.38;;;24.49;63.12
52923;BME280;38796;42.702;23.306;2022-08-23T07:14:20;94863.84;;;24.39;63.75
52923;BME280;38796;42.702;23.306;2022-08-23T07:16:19;94871.28;;;24.79;61.96
52923;BME280;38796;42.702;23.306;2022-08-23T07:18:17;94875.72;;;24.74;61.81
52923;BME280;38796;42.702;23.306;2022-08-23T07:20:17;94875.44;;;25.29;59.66
52923;BME280;38796;42.702;23.306;2022-08-23T07:22:16;94866.53;;;25.16;59.34
52923;BME280;38796;42.702;23.306;2022-08-23T07:24:17;94878.41;;;24.74;61.84
52923;BME280;38796;42.702;23.306;2022-08-23T07:26:16;94864.00;;;24.26;63.30
52923;BME280;38796;42.702;23.306;2022-08-23T07:28:16;94868.63;;;24.19;64.12
52923;BME280;38796;42.702;23.306;2022-08-23T07:30:14;94864.94;;;24.02;64.26
52923;BME280;38796;42.702;23.306;2022-08-23T07:32:14;94865.97;;;23.89;64.82
52923;BME280;38796;42.702;23.306;2022-08-23T07:34:15;94858.03;;;23.57;65.53
52923;BME280;38796;42.702;23.306;2022-08-23T07:36:17;94867.28;;;23.43;66.46
52923;BME280;38796;42.702;23.306;2022-08-23T07:38:16;94868.34;;;23.42;66.53
52923;BME280;38796;42.702;23.306;2022-08-23T07:40:15;94868.78;;;23.20;67.72
52923;BME280;38796;42.702;23.306;2022-08-23T07:42:21;94866.84;;;23.09;66.93
52923;BME280;38796;42.702;23.306;2022-08-23T07:44:24;94873.34;;;23.20;65.58
52923;BME280;38796;42.702;23.306;2022-08-23T07:46:24;94874.44;;;23.12;64.86
52923;BME280;38796;42.702;23.306;2022-08-23T07:48:23;94874.69;;;23.47;64.75
52923;BME280;38796;42.702;23.306;2022-08-23T07:50:50;94867.75;;;23.95;62.97
52923;BME280;38796;42.702;23.306;2022-08-23T07:52:58;94882.13;;;24.01;62.15
52923;BME280;38796;42.702;23.306;2022-08-23T07:54:59;94871.34;;;23.70;63.39
52923;BME280;38796;42.702;23.306;2022-08-23T07:57:11;94877.72;;;23.33;65.62
52923;BME280;38796;42.702;23.306;2022-08-23T07:59:34;94881.09;;;23.46;65.15
52923;BME280;38796;42.702;23.306;2022-08-23T08:01:51;94873.97;;;23.59;65.35
52923;BME280;38796;42.702;23.306;2022-08-23T08:03:54;94881.28;;;23.52;65.08
52923;BME280;38796;42.702;23.306;2022-08-23T08:05:58;94883.59;;;23.48;65.87
52923;BME280;38796;42.702;23.306;2022-08-23T08:07:58;94885.47;;;23.84;64.67
52923;BME280;38796;42.702;23.306;2022-08-23T08:09:57;94890.38;;;23.87;64.15
52923;BME280;38796;42.702;23.306;2022-08-23T08:11:56;94881.06;;;24.02;63.38
52923;BME280;38796;42.702;23.306;2022-08-23T08:13:57;94882.59;;;23.61;63.85
52923;BME280;38796;42.702;23.306;2022-08-23T08:15:56;94888.09;;;23.29;64.60
52923;BME280;38796;42.702;23.306;2022-08-23T08:17:58;94892.09;;;22.76;66.63
52923;BME280;38796;42.702;23.306;2022-08-23T08:20:19;94896.03;;;22.99;67.31
52923;BME280;38796;42.702;23.306;2022-08-23T08:22:38;94886.44;;;23.71;64.26
52923;BME280;38796;42.702;23.306;2022-08-23T08:25:13;94898.28;;;23.45;64.72
52923;BME280;38796;42.702;23.306;2022-08-23T08:27:12;94895.59;;;23.64;63.80
52923;BME280;38796;42.702;23.306;2022-08-23T08:29:12;94897.53;;;23.93;62.92
52923;BME280;38796;42.702;23.306;2022-08-23T08:31:12;94898.16;;;23.77;63.55
52923;BME280;38796;42.702;23.306;2022-08-23T08:33:11;94896.88;;;24.28;63.80
52923;BME280;38796;42.702;23.306;2022-08-23T08:35:11;94903.50;;;25.09;61.53
52923;BME280;38796;42.702;23.306;2022-08-23T08:37:09;94898.50;;;25.36;60.33
52923;BME280;38796;42.702;23.306;2022-08-23T08:39:10;94895.22;;;25.34;60.35
52923;BME280;38796;42.702;23.306;2022-08-23T08:41:19;94891.56;;;25.17;58.56
52923;BME280;38796;42.702;23.306;2022-08-23T08:43:29;94895.94;;;25.18;60.11
52923;BME280;38796;42.702;23.306;2022-08-23T08:45:48;94893.25;;;24.64;61.86
52923;BME280;38796;42.702;23.306;2022-08-23T08:47:58;94896.88;;;24.70;60.97
52923;BME280;38796;42.702;23.306;2022-08-23T08:50:09;94895.41;;;24.98;60.22
52923;BME280;38796;42.702;23.306;2022-08-23T08:52:16;94887.53;;;24.61;59.62
52923;BME280;38796;42.702;23.306;2022-08-23T08:54:18;94883.75;;;24.20;62.33
52923;BME280;38796;42.702;23.306;2022-08-23T08:56:23;94881.41;;;24.42;62.06
52923;BME280;38796;42.702;23.306;2022-08-23T08:58:48;94880.56;;;24.41;62.65
52923;BME280;38796;42.702;23.306;2022-08-23T09:00:51;94873.72;;;24.27;62.20
52923;BME280;38796;42.702;23.306;2022-08-23T09:02:52;94869.22;;;23.91;64.18
52923;BME280;38796;42.702;23.306;2022-08-23T09:04:52;94868.53;;;24.44;61.76
52923;BME280;38796;42.702;23.306;2022-08-23T09:07:00;94858.38;;;23.97;64.01
52923;BME280;38796;42.702;23.306;2022-08-23T09:09:11;94857.25;;;24.05;62.92
52923;BME280;38796;42.702;23.306;2022-08-23T09:11:23;94855.91;;;24.26;62.07
52923;BME280;38796;42.702;23.306;2022-08-23T09:13:50;94852.44;;;24.37;61.90
52923;BME280;38796;42.702;23.306;2022-08-23T09:16:03;94859.84;;;25.31;59.63
52923;BME280;38796;42.702;23.306;2022-08-23T09:18:08;94850.94;;;27.19;54.87
52923;BME280;38796;42.702;23.306;2022-08-23T09:20:09;94850.63;;;28.20;51.87
52923;BME280;38796;42.702;23.306;2022-08-23T09:22:18;94848.31;;;29.20;48.61
52923;BME280;38796;42.702;23.306;2022-08-23T09:24:18;94846.25;;;28.68;49.96
52923;BME280;38796;42.702;23.306;2022-08-23T09:26:50;94848.88;;;30.43;46.92
52923;BME280;38796;42.702;23.306;2022-08-23T09:28:51;94848.78;;;29.54;47.24
52923;BME280;38796;42.702;23.306;2022-08-23T09:30:53;94852.63;;;29.16;49.33
52923;BME280;38796;42.702;23.306;2022-08-23T09:32:54;94847.03;;;29.33;48.92
52923;BME280;38796;42.702;23.306;2022-08-23T09:35:08;94860.00;;;29.68;48.37
52923;BME280;38796;42.702;23.306;2022-08-23T09:37:15;94846.59;;;30.14;46.67
52923;BME280;38796;42.702;23.306;2022-08-23T09:39:27;94847.59;;;30.96;44.79
52923;BME280;38796;42.702;23.306;2022-08-23T09:41:36;94853.03;;;31.27;43.56
52923;BME280;38796;42.702;23.306;2022-08-23T09:43:43;94839.34;;;30.40;44.70
52923;BME280;38796;42.702;23.306;2022-08-23T09:45:55;94841.84;;;31.28;43.23
52923;BME280;38796;42.702;23.306;2022-08-23T09:47:58;94842.41;;;31.41;42.87
52923;BME280;38796;42.702;23.306;2022-08-23T09:50:08;94846.47;;;30.61;44.86
52923;BME280;38796;42.702;23.306;2022-08-23T09:52:20;94847.66;;;30.03;44.31
52923;BME280;38796;42.702;23.306;2022-08-23T09:54:30;94845.38;;;29.32;47.24
52923;BME280;38796;42.702;23.306;2022-08-23T09:56:34;94851.78;;;28.51;48.08
52923;BME280;38796;42.702;23.306;2022-08-23T09:58:39;94847.63;;;29.45;46.24
52923;BME280;38796;42.702;23.306;2022-08-23T10:00:39;94851.72;;;30.00;45.13
52923;BME280;38796;42.702;23.306;2022-08-23T10:02:38;94851.44;;;29.91;45.81
52923;BME280;38796;42.702;23.306;2022-08-23T10:04:53;94853.13;;;30.08;45.27
52923;BME280;38796;42.702;23.306;2022-08-23T10:06:52;94852.34;;;30.17;43.10
52923;BME280;38796;42.702;23.306;2022-08-23T10:08:53;94851.56;;;30.27;43.52
52923;BME280;38796;42.702;23.306;2022-08-23T10:10:56;94843.25;;;30.90;41.18
52923;BME280;38796;42.702;23.306;2022-08-23T10:13:01;94849.84;;;30.06;42.93
52923;BME280;38796;42.702;23.306;2022-08-23T10:15:08;94847.31;;;31.39;41.14
52923;BME280;38796;42.702;23.306;2022-08-23T10:17:17;94851.34;;;30.64;41.51
52923;BME280;38796;42.702;23.306;2022-08-23T10:19:24;94846.84;;;29.97;42.08
52923;BME280;38796;42.702;23.306;2022-08-23T10:21:31;94858.59;;;30.18;42.19
52923;BME280;38796;42.702;23.306;2022-08-23T10:23:42;94846.34;;;30.15;40.59
52923;BME280;38796;42.702;23.306;2022-08-23T10:25:52;94851.63;;;30.53;40.97
52923;BME280;38796;42.702;23.306;2022-08-23T10:27:58;94845.97;;;30.90;39.43
52923;BME280;38796;42.702;23.306;2022-08-23T10:30:20;94841.00;;;31.64;37.48
52923;BME280;38796;42.702;23.306;2022-08-23T10:32:23;94841.31;;;31.42;38.81
52923;BME280;38796;42.702;23.306;2022-08-23T10:34:42;94840.25;;;31.38;39.75
52923;BME280;38796;42.702;23.306;2022-08-23T10:36:54;94842.69;;;30.73;41.60
52923;BME280;38796;42.702;23.306;2022-08-23T10:38:58;94834.53;;;30.62;42.27
52923;BME280;38796;42.702;23.306;2022-08-23T10:41:04;94835.00;;;30.29;41.56
52923;BME280;38796;42.702;23.306;2022-08-23T10:43:14;94839.16;;;29.31;45.19
52923;BME280;38796;42.702;23.306;2022-08-23T10:45:24;94833.72;;;29.31;43.91